createdAt,value
2022-12-17T00:00:13.694Z,13.33
2022-12-17T00:02:58.780Z,14.45
2022-12-17T00:05:43.821Z,14.10
2022-12-17T00:08:30.358Z,14.80
2022-12-17T00:11:17.288Z,14.38
2022-12-17T00:14:02.479Z,14.43
2022-12-17T00:16:47.514Z,14.80
2022-12-17T00:19:32.445Z,14.23
2022-12-17T00:22:17.431Z,13.50
2022-12-17T00:25:02.319Z,14.95
2022-12-17T00:27:47.269Z,15.13
2022-12-17T00:30:32.474Z,14.57
2022-12-17T00:33:17.457Z,14.70
2022-12-17T00:36:02.667Z,14.35
2022-12-17T00:38:48.038Z,14.40
2022-12-17T00:41:33.098Z,13.68
2022-12-17T00:44:18.222Z,14.98
2022-12-17T00:47:03.576Z,14.70
2022-12-17T00:49:49.002Z,14.40
2022-12-17T00:52:33.846Z,15.77
2022-12-17T00:55:18.726Z,15.38
2022-12-17T00:58:03.709Z,15.95
2022-12-17T01:00:49.307Z,15.05
2022-12-17T01:03:34.883Z,15.43
2022-12-17T01:06:24.173Z,15.48
2022-12-17T01:09:09.411Z,15.55
2022-12-17T01:11:56.628Z,15.30
2022-12-17T01:14:42.800Z,15.85
2022-12-17T01:17:28.304Z,15.73
2022-12-17T01:20:13.298Z,15.88
2022-12-17T01:22:58.183Z,15.70
2022-12-17T01:25:43.788Z,15.75
2022-12-17T01:28:36.365Z,16.20
2022-12-17T01:31:21.603Z,15.88
2022-12-17T01:34:06.626Z,14.93
2022-12-17T01:36:52.138Z,16.05
2022-12-17T01:39:37.284Z,16.37
2022-12-17T01:42:22.903Z,16.60
2022-12-17T01:45:12.745Z,16.40
2022-12-17T01:48:11.514Z,14.85
2022-12-17T01:50:58.240Z,15.20
2022-12-17T01:53:44.961Z,16.05
2022-12-17T01:56:32.510Z,15.05
2022-12-17T01:59:17.763Z,15.93
2022-12-17T02:02:03.252Z,15.67
2022-12-17T02:04:48.263Z,16.10
2022-12-17T02:07:39.717Z,15.57
2022-12-17T02:10:48.080Z,16.62
2022-12-17T02:13:43.102Z,15.98
2022-12-17T02:16:34.510Z,17.12
2022-12-17T02:19:55.401Z,16.27
2022-12-17T02:23:10.605Z,16.60
2022-12-17T02:26:03.706Z,15.80
2022-12-17T02:28:48.759Z,16.20
2022-12-17T02:31:34.443Z,16.27
2022-12-17T02:34:19.661Z,16.90
2022-12-17T02:37:05.138Z,18.20
2022-12-17T02:39:50.175Z,16.50
2022-12-17T02:42:35.194Z,16.25
2022-12-17T02:45:20.063Z,16.37
2022-12-17T02:48:05.516Z,16.20
2022-12-17T02:50:50.700Z,15.85
2022-12-17T02:53:35.954Z,16.77
2022-12-17T02:56:21.345Z,18.37
2022-12-17T02:59:06.729Z,16.50
2022-12-17T03:01:52.095Z,17.48
2022-12-17T03:04:37.348Z,17.33
2022-12-17T03:07:22.181Z,17.58
2022-12-17T03:10:07.583Z,17.00
2022-12-17T03:12:52.394Z,17.52
2022-12-17T03:15:37.832Z,17.33
2022-12-17T03:18:23.126Z,18.08
2022-12-17T03:21:11.805Z,16.83
2022-12-17T03:23:57.334Z,17.00
2022-12-17T03:26:42.723Z,17.35
2022-12-17T03:29:27.801Z,16.90
2022-12-17T03:32:12.602Z,17.30
2022-12-17T03:34:57.569Z,18.00
2022-12-17T03:37:42.559Z,17.40
2022-12-17T03:40:30.546Z,17.25
2022-12-17T03:43:15.695Z,18.55
2022-12-17T03:46:01.113Z,17.65
2022-12-17T03:48:46.569Z,17.40
2022-12-17T03:51:31.649Z,17.53
2022-12-17T03:54:16.661Z,17.60
2022-12-17T03:57:01.775Z,16.25
2022-12-17T03:59:46.892Z,16.85
2022-12-17T04:02:32.550Z,17.60
2022-12-17T04:05:20.297Z,17.02
2022-12-17T04:08:06.037Z,16.40
2022-12-17T04:10:51.053Z,15.48
2022-12-17T04:13:40.697Z,16.20
2022-12-17T04:16:26.993Z,16.08
2022-12-17T04:19:12.376Z,16.33
2022-12-17T04:21:57.484Z,16.73
2022-12-17T04:24:43.059Z,16.50
2022-12-17T04:27:27.942Z,15.30
2022-12-17T04:30:12.815Z,15.38
2022-12-17T04:32:57.692Z,15.45
2022-12-17T04:35:42.857Z,16.48
2022-12-17T04:38:27.786Z,15.63
2022-12-17T04:41:12.641Z,15.77
2022-12-17T04:44:02.795Z,16.50
2022-12-17T04:46:48.648Z,16.73
2022-12-17T04:49:33.721Z,17.02
2022-12-17T04:52:18.696Z,15.77
2022-12-17T04:55:03.563Z,16.50
2022-12-17T04:57:49.044Z,16.58
2022-12-17T05:00:34.596Z,16.33
2022-12-17T05:03:30.860Z,15.60
2022-12-17T05:06:16.194Z,16.12
2022-12-17T05:09:01.671Z,16.33
2022-12-17T05:11:47.215Z,16.92
2022-12-17T05:14:32.097Z,15.88
2022-12-17T05:17:17.034Z,16.23
2022-12-17T05:20:02.153Z,14.80
2022-12-17T05:22:47.490Z,15.27
2022-12-17T05:25:32.958Z,15.50
2022-12-17T05:28:18.197Z,15.60
2022-12-17T05:31:10.552Z,15.02
2022-12-17T05:33:55.501Z,15.02
2022-12-17T05:36:40.953Z,14.83
2022-12-17T05:39:26.445Z,15.02
2022-12-17T05:42:11.916Z,15.85
2022-12-17T05:44:57.115Z,15.27
2022-12-17T05:47:42.154Z,15.68
2022-12-17T05:50:27.595Z,15.65
2022-12-17T05:53:13.001Z,15.80
2022-12-17T05:55:58.182Z,14.57
2022-12-17T05:58:43.253Z,15.55
2022-12-17T06:01:28.489Z,15.13
2022-12-17T06:04:14.113Z,14.30
2022-12-17T06:09:44.051Z,14.85
2022-12-17T06:12:29.142Z,15.43
2022-12-17T06:15:14.175Z,14.40
2022-12-17T06:17:59.450Z,14.95
2022-12-17T06:20:45.034Z,14.68
2022-12-17T06:26:15.438Z,14.48
2022-12-17T06:29:00.992Z,13.68
2022-12-17T06:31:46.657Z,13.88
2022-12-17T06:37:17.051Z,14.63
2022-12-17T06:40:02.189Z,15.50
2022-12-17T06:42:47.564Z,14.35
2022-12-17T06:45:32.704Z,14.18
2022-12-17T06:48:24.653Z,13.70
2022-12-17T06:51:12.309Z,14.60
2022-12-17T06:53:57.435Z,14.23
2022-12-17T06:56:42.493Z,13.93
2022-12-17T06:59:27.533Z,14.25
2022-12-17T07:02:12.680Z,13.90
2022-12-17T07:04:57.947Z,13.75
2022-12-17T07:07:42.885Z,13.55
2022-12-17T07:10:28.440Z,13.32
2022-12-17T07:15:58.925Z,13.60
2022-12-17T07:18:43.992Z,13.52
2022-12-17T07:21:29.473Z,14.05
2022-12-17T07:24:14.526Z,13.65
2022-12-17T07:26:59.462Z,13.88
2022-12-17T07:29:44.471Z,14.25
2022-12-17T07:32:29.564Z,14.00
2022-12-17T07:35:14.517Z,13.85
2022-12-17T07:37:59.816Z,14.15
2022-12-17T07:40:45.121Z,13.13
2022-12-17T07:43:31.013Z,13.27
2022-12-17T07:46:16.319Z,14.07
2022-12-17T07:49:01.668Z,14.87
2022-12-17T07:51:46.783Z,14.10
2022-12-17T07:54:32.135Z,12.77
2022-12-17T07:57:17.471Z,13.25
2022-12-17T08:00:02.759Z,13.35
2022-12-17T08:02:48.024Z,12.68
2022-12-17T08:05:33.184Z,14.27
2022-12-17T08:08:26.270Z,13.43
2022-12-17T08:11:11.654Z,14.13
2022-12-17T08:13:56.973Z,13.05
2022-12-17T08:16:42.672Z,13.45
2022-12-17T08:19:28.242Z,13.27
2022-12-17T08:22:13.429Z,13.82
2022-12-17T08:24:58.841Z,13.27
2022-12-17T08:27:43.870Z,13.35
2022-12-17T08:30:29.462Z,13.43
2022-12-17T08:33:14.661Z,13.90
2022-12-17T08:35:59.827Z,12.85
2022-12-17T08:38:44.674Z,14.85
2022-12-17T08:41:29.514Z,14.20
2022-12-17T08:44:14.479Z,14.43
2022-12-17T08:46:59.325Z,14.07
2022-12-17T08:49:44.114Z,12.80
2022-12-17T08:52:28.990Z,13.80
2022-12-17T08:55:14.460Z,13.47
2022-12-17T08:57:59.463Z,13.95
2022-12-17T09:00:44.421Z,13.65
2022-12-17T09:03:29.871Z,13.45
2022-12-17T09:06:14.702Z,13.18
2022-12-17T09:09:00.125Z,13.63
2022-12-17T09:11:46.230Z,14.60
2022-12-17T09:14:31.545Z,14.77
2022-12-17T09:17:16.649Z,14.13
2022-12-17T09:20:01.706Z,15.70
2022-12-17T09:22:46.822Z,14.55
2022-12-17T09:25:31.842Z,15.27
2022-12-17T09:28:19.827Z,13.60
2022-12-17T09:31:05.101Z,16.50
2022-12-17T09:34:03.966Z,14.57
2022-12-17T09:36:51.330Z,15.48
2022-12-17T09:39:36.718Z,14.57
2022-12-17T09:42:25.276Z,15.73
2022-12-17T09:45:15.717Z,14.05
2022-12-17T09:48:04.092Z,13.60
2022-12-17T09:50:49.312Z,14.95
2022-12-17T09:53:43.412Z,14.55
2022-12-17T09:56:29.388Z,15.80
2022-12-17T09:59:14.630Z,15.10
2022-12-17T10:01:59.940Z,14.25
2022-12-17T10:04:52.457Z,13.73
2022-12-17T10:07:40.116Z,13.75
2022-12-17T10:10:54.766Z,15.25
2022-12-17T10:13:41.383Z,14.55
2022-12-17T10:16:42.715Z,15.63
2022-12-17T10:19:55.639Z,15.35
2022-12-17T10:22:40.891Z,15.73
2022-12-17T10:25:28.507Z,15.40
2022-12-17T10:28:13.745Z,14.80
2022-12-17T10:30:58.916Z,15.77
2022-12-17T10:33:44.201Z,14.98
2022-12-17T10:36:42.490Z,15.38
2022-12-17T10:39:36.740Z,14.80
2022-12-17T10:42:21.887Z,15.05
2022-12-17T10:45:06.847Z,15.37
2022-12-17T10:47:52.449Z,14.30
2022-12-17T10:50:41.769Z,15.00
2022-12-17T10:53:40.958Z,14.98
2022-12-17T10:56:26.131Z,15.52
2022-12-17T10:59:12.023Z,15.33
2022-12-17T11:04:46.713Z,15.05
2022-12-17T11:07:55.968Z,15.95
2022-12-17T11:10:42.978Z,16.17
2022-12-17T11:13:31.283Z,14.98
2022-12-17T11:16:17.127Z,14.87
2022-12-17T11:22:08.071Z,14.52
2022-12-17T11:25:16.294Z,15.15
2022-12-17T11:28:03.785Z,14.75
2022-12-17T11:30:48.965Z,14.63
2022-12-17T11:33:39.676Z,15.00
2022-12-17T11:36:41.654Z,14.20
2022-12-17T11:39:43.034Z,15.43
2022-12-17T11:42:49.494Z,15.30
2022-12-17T11:45:37.802Z,14.57
2022-12-17T11:48:35.461Z,14.10
2022-12-17T11:51:46.075Z,15.23
2022-12-17T11:54:34.084Z,14.18
2022-12-17T11:57:39.473Z,14.05
2022-12-17T12:00:35.040Z,15.15
2022-12-17T12:03:51.679Z,14.00
2022-12-17T12:06:39.689Z,14.40
2022-12-17T12:09:46.882Z,14.27
2022-12-17T12:13:23.223Z,14.32
2022-12-17T12:16:11.081Z,13.52
2022-12-17T12:19:05.488Z,15.02
2022-12-17T12:21:53.592Z,15.38
2022-12-17T12:25:04.497Z,14.48
2022-12-17T12:28:17.047Z,16.17
2022-12-17T12:31:12.371Z,15.00
2022-12-17T12:34:03.095Z,15.40
2022-12-17T12:36:48.302Z,14.90
2022-12-17T12:39:36.963Z,15.20
2022-12-17T12:42:23.378Z,15.02
2022-12-17T12:45:30.872Z,15.02
2022-12-17T12:48:23.785Z,15.18
2022-12-17T12:51:35.556Z,15.35
2022-12-17T12:54:21.720Z,14.82
2022-12-17T12:57:06.945Z,15.70
2022-12-17T12:59:53.182Z,15.03
2022-12-17T13:02:46.373Z,14.60
2022-12-17T13:05:33.848Z,15.73
2022-12-17T13:08:20.854Z,15.25
2022-12-17T13:10:47.606Z,14.48
2022-12-17T13:13:36.765Z,15.50
2022-12-17T13:16:32.908Z,14.80
2022-12-17T13:19:19.084Z,15.50
2022-12-17T13:21:45.644Z,14.98
2022-12-17T13:24:13.039Z,14.80
2022-12-17T13:26:39.480Z,14.87
2022-12-17T13:29:24.349Z,15.60
2022-12-17T13:32:15.513Z,15.68
2022-12-17T13:35:02.400Z,15.23
2022-12-17T13:37:35.831Z,15.23
2022-12-17T13:40:17.621Z,15.23
2022-12-17T13:42:45.403Z,16.08
2022-12-17T13:45:16.730Z,15.48
2022-12-17T13:47:43.346Z,15.88
2022-12-17T13:50:33.872Z,14.90
2022-12-17T13:53:10.140Z,16.33
2022-12-17T13:55:37.994Z,15.07
2022-12-17T13:58:04.586Z,15.57
2022-12-17T14:00:31.302Z,15.55
2022-12-17T14:02:58.091Z,14.55
2022-12-17T14:05:34.434Z,15.30
2022-12-17T14:08:02.242Z,15.63
2022-12-17T14:10:29.310Z,14.60
2022-12-17T14:13:06.148Z,14.40
2022-12-17T14:15:33.254Z,15.77
2022-12-17T14:17:59.954Z,14.68
2022-12-17T14:20:29.075Z,15.30
2022-12-17T14:22:59.140Z,16.10
2022-12-17T14:25:39.182Z,16.23
2022-12-17T14:28:07.520Z,15.52
2022-12-17T14:30:46.209Z,15.38
2022-12-17T14:33:31.500Z,16.10
2022-12-17T14:36:21.741Z,15.43
2022-12-17T14:38:59.377Z,15.55
2022-12-17T14:41:45.714Z,15.05
2022-12-17T14:44:24.663Z,14.85
2022-12-17T14:46:52.242Z,15.85
2022-12-17T14:49:19.690Z,15.52
2022-12-17T14:51:46.345Z,16.20
2022-12-17T14:54:15.893Z,15.50
2022-12-17T14:56:42.477Z,15.98
2022-12-17T14:59:45.158Z,15.82
2022-12-17T15:02:11.853Z,15.85
2022-12-17T15:04:38.679Z,14.68
2022-12-17T15:07:05.972Z,16.02
2022-12-17T15:09:36.810Z,15.80
2022-12-17T15:12:03.601Z,16.08
2022-12-17T15:14:30.173Z,15.05
2022-12-17T15:16:58.936Z,15.15
2022-12-17T15:19:25.621Z,15.85
2022-12-17T15:21:52.231Z,15.10
2022-12-17T15:24:20.184Z,15.13
2022-12-17T15:26:46.799Z,15.45
2022-12-17T15:29:13.674Z,14.87
2022-12-17T15:31:40.410Z,15.60
2022-12-17T15:34:07.053Z,16.20
2022-12-17T15:36:33.644Z,15.70
2022-12-17T15:39:00.307Z,14.68
2022-12-17T15:41:45.834Z,15.68
2022-12-17T15:44:13.161Z,15.10
2022-12-17T15:46:39.850Z,15.25
2022-12-17T15:49:06.490Z,15.23
2022-12-17T15:51:33.055Z,14.98
2022-12-17T15:53:59.723Z,15.13
2022-12-17T15:56:27.723Z,15.30
2022-12-17T15:58:58.056Z,14.55
2022-12-17T16:01:24.989Z,15.52
2022-12-17T16:03:51.748Z,16.67
2022-12-17T16:06:18.426Z,14.73
2022-12-17T16:08:45.023Z,15.52
2022-12-17T16:11:12.619Z,15.10
2022-12-17T16:13:39.279Z,15.20
2022-12-17T16:16:06.794Z,14.87
2022-12-17T16:18:33.586Z,15.15
2022-12-17T16:21:04.378Z,14.98
2022-12-17T16:23:30.953Z,15.05
2022-12-17T16:26:01.906Z,14.50
2022-12-17T16:28:28.824Z,14.57
2022-12-17T16:30:58.500Z,15.00
2022-12-17T16:33:25.136Z,15.57
2022-12-17T16:35:54.923Z,14.50
2022-12-17T16:38:22.138Z,15.18
2022-12-17T16:40:48.725Z,13.73
2022-12-17T16:43:15.688Z,14.80
2022-12-17T16:45:47.613Z,14.82
2022-12-17T16:48:14.291Z,14.75
2022-12-17T16:50:40.867Z,14.65
2022-12-17T16:53:07.462Z,14.60
2022-12-17T16:55:34.060Z,15.05
2022-12-17T16:58:00.828Z,15.35
2022-12-17T17:00:27.519Z,14.75
2022-12-17T17:02:54.272Z,14.38
2022-12-17T17:05:20.927Z,14.60
2022-12-17T17:07:47.457Z,13.75
2022-12-17T17:10:14.050Z,14.00
2022-12-17T17:12:40.611Z,14.80
2022-12-17T17:15:07.882Z,13.00
2022-12-17T17:17:54.112Z,14.65
2022-12-17T17:20:21.063Z,14.82
2022-12-17T17:22:47.654Z,14.35
2022-12-17T17:25:14.379Z,13.95
2022-12-17T17:27:41.001Z,14.45
2022-12-17T17:30:08.088Z,13.98
2022-12-17T17:32:34.741Z,13.15
2022-12-17T17:35:01.363Z,13.95
2022-12-17T17:37:27.975Z,14.18
2022-12-17T17:39:54.550Z,12.80
2022-12-17T17:42:21.133Z,14.02
2022-12-17T17:44:48.789Z,13.68
2022-12-17T17:47:16.109Z,12.40
2022-12-17T17:49:42.690Z,13.32
2022-12-17T17:52:10.643Z,13.57
2022-12-17T17:54:39.462Z,13.60
2022-12-17T17:57:06.306Z,12.98
2022-12-17T17:59:34.322Z,14.80
2022-12-17T18:02:01.550Z,13.73
2022-12-17T18:04:28.260Z,13.48
2022-12-17T18:09:44.168Z,13.62
2022-12-17T18:12:29.351Z,14.00
2022-12-17T18:17:43.102Z,13.57
2022-12-17T18:20:10.408Z,14.30
2022-12-17T18:22:37.274Z,13.38
2022-12-17T18:25:04.100Z,13.62
2022-12-17T18:27:30.697Z,13.25
2022-12-17T18:29:57.265Z,13.27
2022-12-17T18:32:23.849Z,14.60
2022-12-17T18:34:50.481Z,13.38
2022-12-17T18:37:17.137Z,13.30
2022-12-17T18:39:43.881Z,12.73
2022-12-17T18:42:28.826Z,12.80
2022-12-17T18:44:55.416Z,13.27
2022-12-17T18:47:22.065Z,13.62
2022-12-17T18:49:48.676Z,12.55
2022-12-17T18:52:17.346Z,13.88
2022-12-17T18:54:44.365Z,13.43
2022-12-17T18:57:10.944Z,14.27
2022-12-17T18:59:38.539Z,13.20
2022-12-17T19:02:05.308Z,13.68
2022-12-17T19:04:33.062Z,13.32
2022-12-17T19:06:59.848Z,13.93
2022-12-17T19:09:37.059Z,13.27
2022-12-17T19:12:05.250Z,12.93
2022-12-17T19:14:31.809Z,12.73
2022-12-17T19:16:59.544Z,12.35
2022-12-17T19:19:26.291Z,12.65
2022-12-17T19:21:56.190Z,13.45
2022-12-17T19:24:23.218Z,12.27
2022-12-17T19:26:49.833Z,12.20
2022-12-17T19:29:16.977Z,12.75
2022-12-17T19:31:43.860Z,13.32
2022-12-17T19:34:12.517Z,12.60
2022-12-17T19:36:39.371Z,13.00
2022-12-17T19:39:07.483Z,12.32
2022-12-17T19:41:34.383Z,12.48
2022-12-17T19:44:02.436Z,12.73
2022-12-17T19:46:30.241Z,11.52
2022-12-17T19:48:57.358Z,12.75
2022-12-17T19:51:25.265Z,12.50
2022-12-17T19:53:51.879Z,13.13
2022-12-17T19:56:26.031Z,12.18
2022-12-17T19:58:57.326Z,11.63
2022-12-17T20:01:34.633Z,12.10
2022-12-17T20:04:04.969Z,13.07
2022-12-17T20:06:32.602Z,12.50
2022-12-17T20:08:59.576Z,12.27
2022-12-17T20:11:36.019Z,12.27
2022-12-17T20:14:02.822Z,12.57
2022-12-17T20:16:30.202Z,11.73
2022-12-17T20:18:58.615Z,11.68
2022-12-17T20:21:25.191Z,12.07
2022-12-17T20:23:51.844Z,11.63
2022-12-17T20:26:18.648Z,11.70
2022-12-17T20:28:45.564Z,12.23
2022-12-17T20:31:12.615Z,12.50
2022-12-17T20:33:39.215Z,12.73
2022-12-17T20:36:06.379Z,12.93
2022-12-17T20:38:33.123Z,11.65
2022-12-17T20:40:59.912Z,12.13
2022-12-17T20:43:27.077Z,12.18
2022-12-17T20:45:57.116Z,11.40
2022-12-17T20:48:27.109Z,11.88
2022-12-17T20:50:54.519Z,12.15
2022-12-17T20:53:23.251Z,13.05
2022-12-17T20:56:00.040Z,12.73
2022-12-17T20:58:26.671Z,11.98
2022-12-17T21:00:53.325Z,11.75
2022-12-17T21:03:20.373Z,12.95
2022-12-17T21:05:46.954Z,12.13
2022-12-17T21:08:13.548Z,11.93
2022-12-17T21:10:40.265Z,12.30
2022-12-17T21:13:25.214Z,12.45
2022-12-17T21:15:51.760Z,10.75
2022-12-17T21:18:18.333Z,11.77
2022-12-17T21:21:00.671Z,12.70
2022-12-17T21:23:27.975Z,12.60
2022-12-17T21:26:04.143Z,11.10
2022-12-17T21:28:36.326Z,12.07
2022-12-17T21:31:06.849Z,12.63
2022-12-17T21:33:33.758Z,11.88
2022-12-17T21:36:07.612Z,11.70
2022-12-17T21:38:34.795Z,11.60
2022-12-17T21:41:12.850Z,11.90
2022-12-17T21:43:40.052Z,11.95
2022-12-17T21:46:07.754Z,12.27
2022-12-17T21:48:41.384Z,11.63
2022-12-17T21:51:10.482Z,11.43
2022-12-17T21:53:41.911Z,12.40
2022-12-17T21:56:18.456Z,11.07
2022-12-17T21:58:45.849Z,12.60
2022-12-17T22:01:18.800Z,11.00
2022-12-17T22:03:56.387Z,11.75
2022-12-17T22:06:25.217Z,11.27
2022-12-17T22:08:56.704Z,12.30
2022-12-17T22:11:25.727Z,12.15
2022-12-17T22:14:12.715Z,11.30
2022-12-17T22:16:47.218Z,11.25
2022-12-17T22:19:21.461Z,10.98
2022-12-17T22:21:49.793Z,11.65
2022-12-17T22:24:18.422Z,10.82
2022-12-17T22:26:45.174Z,12.25
2022-12-17T22:29:11.981Z,12.00
2022-12-17T22:31:57.162Z,11.60
2022-12-17T22:40:57.032Z,11.12
2022-12-17T22:44:28.607Z,12.55
2022-12-17T22:44:44.079Z,12.23
2022-12-17T22:45:49.276Z,12.02
2022-12-17T22:48:15.939Z,11.43
2022-12-17T22:50:47.152Z,11.70
2022-12-17T22:53:27.983Z,11.33
2022-12-17T22:55:54.879Z,11.80
2022-12-17T22:58:22.331Z,11.40
2022-12-17T23:00:48.915Z,11.25
2022-12-17T23:03:16.483Z,11.82
2022-12-17T23:05:43.155Z,11.68
2022-12-17T23:08:09.790Z,11.23
2022-12-17T23:10:36.368Z,12.10
2022-12-17T23:13:02.943Z,11.57
2022-12-17T23:15:31.236Z,11.05
2022-12-17T23:17:59.340Z,11.90
2022-12-17T23:20:26.386Z,11.82
2022-12-17T23:22:52.957Z,12.20
2022-12-17T23:25:19.722Z,11.73
2022-12-17T23:27:46.421Z,11.12
2022-12-17T23:30:13.655Z,12.13
2022-12-17T23:32:40.486Z,11.40
2022-12-17T23:35:07.567Z,11.75
2022-12-17T23:37:39.499Z,11.90
2022-12-17T23:40:08.981Z,11.70
2022-12-17T23:42:35.654Z,12.15
2022-12-17T23:45:02.634Z,11.65
2022-12-17T23:47:29.228Z,11.65
2022-12-17T23:49:55.767Z,11.57
2022-12-17T23:52:22.322Z,12.68
2022-12-17T23:54:48.864Z,12.27
2022-12-17T23:57:15.467Z,11.38
2022-12-17T23:59:42.090Z,12.73
